createdAt,value
2017-08-04T00:01:33.495Z,90.30
2017-08-04T00:04:01.018Z,90.40
2017-08-04T00:06:28.558Z,90.40
2017-08-04T00:08:56.083Z,90.10
2017-08-04T00:11:23.621Z,89.50
2017-08-04T00:13:51.791Z,90.10
2017-08-04T00:16:19.329Z,90.30
2017-08-04T00:18:46.847Z,90.60
2017-08-04T00:21:14.387Z,90.60
2017-08-04T00:23:41.912Z,90.40
2017-08-04T00:26:09.436Z,90.70
2017-08-04T00:28:37.739Z,91.00
2017-08-04T00:31:05.259Z,91.00
2017-08-04T00:33:32.799Z,90.90
2017-08-04T00:36:00.314Z,91.00
2017-08-04T00:38:27.856Z,91.40
2017-08-04T00:40:56.138Z,91.80
2017-08-04T00:43:23.678Z,91.80
2017-08-04T00:45:51.194Z,91.80
2017-08-04T00:48:18.759Z,92.10
2017-08-04T00:50:46.283Z,92.10
2017-08-04T00:53:13.798Z,92.20
2017-08-04T00:55:41.342Z,91.90
2017-08-04T00:58:08.863Z,92.00
2017-08-04T01:00:37.168Z,92.50
2017-08-04T01:03:04.693Z,92.50
2017-08-04T01:05:33.021Z,92.30
2017-08-04T01:08:00.547Z,92.30
2017-08-04T01:10:28.086Z,92.50
2017-08-04T01:12:55.606Z,92.10
2017-08-04T01:15:23.145Z,91.90
2017-08-04T01:17:50.658Z,92.30
2017-08-04T01:20:18.971Z,92.10
2017-08-04T01:22:46.491Z,92.00
2017-08-04T01:25:14.012Z,92.20
2017-08-04T01:27:41.547Z,91.80
2017-08-04T01:30:09.065Z,91.80
2017-08-04T01:32:36.627Z,91.80
2017-08-04T01:35:04.143Z,91.70
2017-08-04T01:37:32.447Z,92.10
2017-08-04T01:39:59.962Z,92.10
2017-08-04T01:42:27.507Z,92.50
2017-08-04T01:44:55.796Z,92.30
2017-08-04T01:47:23.358Z,92.20
2017-08-04T01:49:50.878Z,92.60
2017-08-04T01:52:18.404Z,92.20
2017-08-04T01:54:45.943Z,92.40
2017-08-04T01:57:13.464Z,92.60
2017-08-04T01:59:41.012Z,92.80
2017-08-04T02:02:08.532Z,93.10
2017-08-04T02:04:36.075Z,93.30
2017-08-04T02:07:03.594Z,93.30
2017-08-04T02:09:31.134Z,93.20
2017-08-04T02:11:58.655Z,93.20
2017-08-04T02:14:26.955Z,93.20
2017-08-04T02:16:54.487Z,93.20
2017-08-04T02:19:22.050Z,93.50
2017-08-04T02:21:49.574Z,93.30
2017-08-04T02:24:17.099Z,93.50
2017-08-04T02:26:44.637Z,93.80
2017-08-04T02:29:12.164Z,93.70
2017-08-04T02:31:39.708Z,94.00
2017-08-04T02:34:07.222Z,94.10
2017-08-04T02:36:35.528Z,94.40
2017-08-04T02:39:03.055Z,94.40
2017-08-04T02:41:30.599Z,94.60
2017-08-04T02:43:58.118Z,94.60
2017-08-04T02:46:26.428Z,94.40
2017-08-04T02:48:53.950Z,94.40
2017-08-04T02:51:21.486Z,94.60
2017-08-04T02:53:49.002Z,94.60
2017-08-04T02:56:16.562Z,94.60
2017-08-04T02:58:44.847Z,95.20
2017-08-04T03:01:13.131Z,95.60
2017-08-04T03:03:40.675Z,95.50
2017-08-04T03:06:08.194Z,95.90
2017-08-04T03:08:35.735Z,96.00
2017-08-04T03:11:03.255Z,96.00
2017-08-04T03:13:30.790Z,95.90
2017-08-04T03:15:58.314Z,94.70
2017-08-04T03:18:25.849Z,94.50
2017-08-04T03:20:53.363Z,95.10
2017-08-04T03:23:20.899Z,95.40
2017-08-04T03:25:48.418Z,95.60
2017-08-04T03:28:15.963Z,95.80
2017-08-04T03:30:43.479Z,95.90
2017-08-04T03:33:10.993Z,95.70
2017-08-04T03:35:38.530Z,95.40
2017-08-04T03:38:06.046Z,95.10
2017-08-04T03:40:33.586Z,95.00
2017-08-04T03:43:01.104Z,95.20
2017-08-04T03:45:28.646Z,95.20
2017-08-04T03:47:56.171Z,95.30
2017-08-04T03:50:23.723Z,95.50
2017-08-04T03:52:51.233Z,95.50
2017-08-04T03:55:19.547Z,95.70
2017-08-04T03:57:47.063Z,95.70
2017-08-04T04:00:14.603Z,95.40
2017-08-04T04:02:42.118Z,95.20
2017-08-04T04:05:09.636Z,95.40
2017-08-04T04:07:37.170Z,95.40
2017-08-04T04:10:04.687Z,95.50
2017-08-04T04:12:32.227Z,95.60
2017-08-04T04:14:59.752Z,95.70
2017-08-04T04:17:27.286Z,95.70
2017-08-04T04:19:54.806Z,95.50
2017-08-04T04:22:23.097Z,95.60
2017-08-04T04:24:50.610Z,95.60
2017-08-04T04:27:18.155Z,96.00
2017-08-04T04:29:45.671Z,96.20
2017-08-04T04:32:13.195Z,96.30
2017-08-04T04:34:40.732Z,96.30
2017-08-04T04:37:08.250Z,96.20
2017-08-04T04:39:35.790Z,96.10
2017-08-04T04:42:03.306Z,96.30
2017-08-04T04:44:30.842Z,96.30
2017-08-04T04:46:58.362Z,96.30
2017-08-04T04:49:26.660Z,96.20
2017-08-04T04:51:54.178Z,96.10
2017-08-04T04:54:21.713Z,96.20
2017-08-04T04:56:49.226Z,96.10
2017-08-04T04:59:16.763Z,96.00
2017-08-04T05:01:44.286Z,96.40
2017-08-04T05:04:11.806Z,96.00
2017-08-04T05:06:39.338Z,96.00
2017-08-04T05:09:06.854Z,96.20
2017-08-04T05:11:34.390Z,96.40
2017-08-04T05:14:02.675Z,96.40
2017-08-04T05:16:30.211Z,96.40
2017-08-04T05:18:57.735Z,96.30
2017-08-04T05:21:25.274Z,96.30
2017-08-04T05:23:52.788Z,96.30
2017-08-04T05:26:20.332Z,96.20
2017-08-04T05:28:47.870Z,96.10
2017-08-04T05:31:15.391Z,96.10
2017-08-04T05:33:42.935Z,96.20
2017-08-04T05:36:10.463Z,96.10
2017-08-04T05:38:38.004Z,96.00
2017-08-04T05:41:05.656Z,95.80
2017-08-04T05:43:33.320Z,95.80
2017-08-04T05:46:00.885Z,95.70
2017-08-04T05:48:28.454Z,95.40
2017-08-04T05:50:57.609Z,95.00
2017-08-04T05:53:25.960Z,94.60
2017-08-04T05:55:53.495Z,94.90
2017-08-04T05:58:21.023Z,93.70
2017-08-04T06:00:49.341Z,92.80
2017-08-04T06:03:16.878Z,92.80
2017-08-04T06:05:44.431Z,91.70
2017-08-04T06:08:11.988Z,91.30
2017-08-04T06:10:39.547Z,91.20
2017-08-04T06:13:07.068Z,91.20
2017-08-04T06:15:34.612Z,91.00
2017-08-04T06:18:02.157Z,90.80
2017-08-04T06:20:29.713Z,90.50
2017-08-04T06:22:57.291Z,90.60
2017-08-04T06:25:24.851Z,90.30
2017-08-04T06:27:52.371Z,90.00
2017-08-04T06:30:19.894Z,89.60
2017-08-04T06:32:47.450Z,89.80
2017-08-04T06:35:14.968Z,89.00
2017-08-04T06:37:42.505Z,88.30
2017-08-04T06:40:10.024Z,88.30
2017-08-04T06:42:37.567Z,88.70
2017-08-04T06:45:05.082Z,86.60
2017-08-04T06:47:32.626Z,86.40
2017-08-04T06:50:12.866Z,86.70
2017-08-04T06:52:52.206Z,86.60
2017-08-04T06:55:42.223Z,86.00
2017-08-04T06:58:09.753Z,85.80
2017-08-04T07:00:37.273Z,86.00
2017-08-04T07:03:04.812Z,84.80
2017-08-04T07:05:32.334Z,85.70
2017-08-04T07:07:59.876Z,85.50
2017-08-04T07:10:27.396Z,83.70
2017-08-04T07:12:54.933Z,84.20
2017-08-04T07:15:22.456Z,83.70
2017-08-04T07:17:49.993Z,83.20
2017-08-04T07:20:17.515Z,82.40
2017-08-04T07:22:45.030Z,82.80
2017-08-04T07:25:12.575Z,83.00
2017-08-04T07:27:40.113Z,82.30
2017-08-04T07:30:07.649Z,81.40
2017-08-04T07:32:35.178Z,81.70
2017-08-04T07:35:02.709Z,82.60
2017-08-04T07:37:30.226Z,80.20
2017-08-04T07:39:57.778Z,80.20
2017-08-04T07:42:25.299Z,80.20
2017-08-04T07:44:52.861Z,79.70
2017-08-04T07:47:20.374Z,80.10
2017-08-04T07:49:50.311Z,77.70
2017-08-04T07:52:18.609Z,78.60
2017-08-04T07:54:46.122Z,78.50
2017-08-04T07:57:13.658Z,79.40
2017-08-04T07:59:41.174Z,79.20
2017-08-04T08:02:08.711Z,74.50
2017-08-04T08:04:36.243Z,76.00
2017-08-04T08:07:03.785Z,75.40
2017-08-04T08:09:31.299Z,76.30
2017-08-04T08:11:58.821Z,70.00
2017-08-04T08:14:26.354Z,66.60
2017-08-04T08:16:53.880Z,61.60
2017-08-04T08:19:22.191Z,59.80
2017-08-04T08:21:49.714Z,59.80
2017-08-04T08:24:17.255Z,60.90
2017-08-04T08:26:44.782Z,59.80
2017-08-04T08:29:12.331Z,62.00
2017-08-04T08:31:39.846Z,62.60
2017-08-04T08:34:07.415Z,62.30
2017-08-04T08:36:34.927Z,60.90
2017-08-04T08:39:02.446Z,63.70
2017-08-04T08:41:30.755Z,64.30
2017-08-04T08:43:58.275Z,64.30
2017-08-04T08:46:26.586Z,63.90
2017-08-04T08:48:54.099Z,64.00
2017-08-04T08:51:24.506Z,62.20
2017-08-04T08:53:52.079Z,63.70
2017-08-04T08:56:19.618Z,64.40
2017-08-04T08:58:47.140Z,62.70
2017-08-04T09:01:14.682Z,62.80
2017-08-04T09:03:42.198Z,63.90
2017-08-04T09:06:09.750Z,63.90
2017-08-04T09:08:37.270Z,66.50
2017-08-04T09:11:05.563Z,62.20
2017-08-04T09:13:33.098Z,62.10
2017-08-04T09:16:01.385Z,55.60
2017-08-04T09:18:29.685Z,55.50
2017-08-04T09:20:58.090Z,55.40
2017-08-04T09:23:25.635Z,56.70
2017-08-04T09:25:53.153Z,56.10
2017-08-04T09:28:20.689Z,57.30
2017-08-04T09:30:48.205Z,57.70
2017-08-04T09:33:15.742Z,59.20
2017-08-04T09:35:43.265Z,59.40
2017-08-04T09:38:10.788Z,59.90
2017-08-04T09:40:38.334Z,59.40
2017-08-04T09:43:05.854Z,61.20
2017-08-04T09:45:34.155Z,57.80
2017-08-04T09:48:01.688Z,58.00
2017-08-04T09:50:29.989Z,58.80
2017-08-04T09:52:57.519Z,59.20
2017-08-04T09:55:25.059Z,58.10
2017-08-04T09:57:52.583Z,59.30
2017-08-04T10:00:20.125Z,58.50
2017-08-04T10:02:47.651Z,58.30
2017-08-04T10:05:15.199Z,57.50
2017-08-04T10:07:42.718Z,58.60
2017-08-04T10:10:10.274Z,59.70
2017-08-04T10:12:37.785Z,58.90
2017-08-04T10:15:05.299Z,58.00
2017-08-04T10:17:32.839Z,58.00
2017-08-04T10:20:00.360Z,56.30
2017-08-04T10:22:27.898Z,55.00
2017-08-04T10:24:56.185Z,55.40
2017-08-04T10:27:23.723Z,55.40
2017-08-04T10:29:52.019Z,54.60
2017-08-04T10:32:19.557Z,54.20
2017-08-04T10:34:47.070Z,55.70
2017-08-04T10:37:14.595Z,56.70
2017-08-04T10:39:42.130Z,56.40
2017-08-04T10:42:09.648Z,56.40
2017-08-04T10:44:37.185Z,55.70
2017-08-04T10:47:04.702Z,57.00
2017-08-04T10:49:32.242Z,56.80
2017-08-04T10:51:59.785Z,56.90
2017-08-04T10:54:27.322Z,55.80
2017-08-04T10:56:54.841Z,56.80
2017-08-04T10:59:22.377Z,55.60
2017-08-04T11:01:49.898Z,54.00
2017-08-04T11:04:17.419Z,56.90
2017-08-04T11:06:44.954Z,56.70
2017-08-04T11:09:13.237Z,55.80
2017-08-04T11:11:40.779Z,55.70
2017-08-04T11:14:08.298Z,55.10
2017-08-04T11:16:35.831Z,55.00
2017-08-04T11:19:03.349Z,55.50
2017-08-04T11:21:30.882Z,55.50
2017-08-04T11:23:58.397Z,55.30
2017-08-04T11:26:25.934Z,54.60
2017-08-04T11:28:54.221Z,55.40
2017-08-04T11:31:22.538Z,54.30
2017-08-04T11:33:50.054Z,54.30
2017-08-04T11:36:18.339Z,55.90
2017-08-04T11:38:45.874Z,55.90
2017-08-04T11:41:14.164Z,55.40
2017-08-04T11:43:41.715Z,55.30
2017-08-04T11:46:09.230Z,55.30
2017-08-04T11:48:36.768Z,55.50
2017-08-04T11:51:04.286Z,54.70
2017-08-04T11:53:32.595Z,53.80
2017-08-04T11:56:00.115Z,53.80
2017-08-04T11:58:27.637Z,52.70
2017-08-04T12:00:55.174Z,53.10
2017-08-04T12:03:22.694Z,52.50
2017-08-04T12:05:50.238Z,50.80
2017-08-04T12:08:17.749Z,53.00
2017-08-04T12:10:45.284Z,53.80
2017-08-04T12:13:12.798Z,54.10
2017-08-04T12:15:40.338Z,53.20
2017-08-04T12:18:08.620Z,54.60
2017-08-04T12:20:36.906Z,54.10
2017-08-04T12:23:04.442Z,54.20
2017-08-04T12:25:31.967Z,53.10
2017-08-04T12:27:59.505Z,53.00
2017-08-04T12:30:27.024Z,53.90
2017-08-04T12:32:54.559Z,53.40
2017-08-04T12:35:22.084Z,50.30
2017-08-04T12:37:49.617Z,51.00
2017-08-04T12:40:17.902Z,52.50
2017-08-04T12:42:45.438Z,52.40
2017-08-04T12:45:12.954Z,50.30
2017-08-04T12:47:40.503Z,49.60
2017-08-04T12:50:08.021Z,50.30
2017-08-04T12:52:36.310Z,51.30
2017-08-04T12:55:04.620Z,50.10
2017-08-04T12:57:32.137Z,50.70
2017-08-04T12:59:59.690Z,51.00
2017-08-04T13:02:27.209Z,50.40
2017-08-04T13:04:54.745Z,49.90
2017-08-04T13:07:22.263Z,49.60
2017-08-04T13:09:50.569Z,49.40
2017-08-04T13:12:18.090Z,49.40
2017-08-04T13:14:45.627Z,50.00
2017-08-04T13:17:13.473Z,48.80
2017-08-04T13:19:41.777Z,49.60
2017-08-04T13:22:09.294Z,49.60
2017-08-04T13:24:36.814Z,50.80
2017-08-04T13:27:04.349Z,50.90
2017-08-04T13:29:31.870Z,51.90
2017-08-04T13:31:59.411Z,51.10
2017-08-04T13:34:26.929Z,50.00
2017-08-04T13:36:54.467Z,51.70
2017-08-04T13:39:22.747Z,51.20
2017-08-04T13:41:51.064Z,51.00
2017-08-04T13:44:18.585Z,51.00
2017-08-04T13:46:46.123Z,51.80
2017-08-04T13:49:13.643Z,51.80
2017-08-04T13:51:41.203Z,53.00
2017-08-04T13:54:08.718Z,51.70
2017-08-04T13:56:36.234Z,52.30
2017-08-04T13:59:03.770Z,53.40
2017-08-04T14:01:31.285Z,53.70
2017-08-04T14:03:58.826Z,53.50
2017-08-04T14:06:27.118Z,51.80
2017-08-04T14:08:54.653Z,51.80
2017-08-04T14:11:22.174Z,51.30
2017-08-04T14:13:49.711Z,51.00
2017-08-04T14:16:17.227Z,51.00
2017-08-04T14:18:44.766Z,51.50
2017-08-04T14:21:12.286Z,50.20
2017-08-04T14:23:39.819Z,50.50
2017-08-04T14:26:07.353Z,50.80
2017-08-04T14:28:34.878Z,50.80
2017-08-04T14:31:03.186Z,52.10
2017-08-04T14:33:31.467Z,51.70
2017-08-04T14:35:59.768Z,50.50
2017-08-04T14:38:27.290Z,50.50
2017-08-04T14:40:54.828Z,50.50
2017-08-04T14:43:22.342Z,50.60
2017-08-04T14:45:49.887Z,49.60
2017-08-04T14:48:18.169Z,50.20
2017-08-04T14:50:46.470Z,48.80
2017-08-04T14:53:13.986Z,48.80
2017-08-04T14:55:41.522Z,47.70
2017-08-04T14:58:09.039Z,49.30
2017-08-04T15:00:36.586Z,49.00
2017-08-04T15:03:04.118Z,50.00
2017-08-04T15:05:31.638Z,50.80
2017-08-04T15:07:59.183Z,50.60
2017-08-04T15:10:26.699Z,51.00
2017-08-04T15:12:54.233Z,51.50
2017-08-04T15:15:21.755Z,52.10
2017-08-04T15:17:49.294Z,52.50
2017-08-04T15:20:16.812Z,52.60
2017-08-04T15:22:45.113Z,53.40
2017-08-04T15:25:12.635Z,53.40
2017-08-04T15:27:40.165Z,52.70
2017-08-04T15:30:07.677Z,53.00
2017-08-04T15:32:35.986Z,53.20
2017-08-04T15:35:03.508Z,52.70
2017-08-04T15:37:31.025Z,52.80
2017-08-04T15:39:58.558Z,53.50
2017-08-04T15:42:26.073Z,53.50
2017-08-04T15:44:54.378Z,53.30
2017-08-04T15:47:21.893Z,53.20
2017-08-04T15:49:49.436Z,53.10
2017-08-04T15:52:16.960Z,52.90
2017-08-04T15:54:44.499Z,52.70
2017-08-04T15:57:12.015Z,52.60
2017-08-04T15:59:39.556Z,53.10
2017-08-04T16:02:07.070Z,53.00
2017-08-04T16:04:34.609Z,53.60
2017-08-04T16:07:02.126Z,54.20
2017-08-04T16:09:29.662Z,53.80
2017-08-04T16:11:57.950Z,53.90
2017-08-04T16:14:25.494Z,53.80
2017-08-04T16:16:53.014Z,53.40
2017-08-04T16:19:20.540Z,53.90
2017-08-04T16:21:48.168Z,53.90
2017-08-04T16:24:15.682Z,53.40
2017-08-04T16:26:43.983Z,53.80
2017-08-04T16:29:11.507Z,53.70
2017-08-04T16:31:39.046Z,54.00
2017-08-04T16:34:06.562Z,54.10
2017-08-04T16:36:34.102Z,54.30
2017-08-04T16:39:02.385Z,53.60
2017-08-04T16:41:30.695Z,53.60
2017-08-04T16:43:58.213Z,53.50
2017-08-04T16:46:25.751Z,53.90
2017-08-04T16:48:53.271Z,54.50
2017-08-04T16:51:20.819Z,54.20
2017-08-04T16:53:48.342Z,54.60
2017-08-04T16:56:15.864Z,53.10
2017-08-04T16:58:44.164Z,52.50
2017-08-04T17:01:11.686Z,52.50
2017-08-04T17:03:39.223Z,53.10
2017-08-04T17:06:06.748Z,53.20
2017-08-04T17:08:34.294Z,52.70
2017-08-04T17:11:02.578Z,53.20
2017-08-04T17:13:30.124Z,53.10
2017-08-04T17:15:58.415Z,52.40
2017-08-04T17:18:25.958Z,52.30
2017-08-04T17:20:54.242Z,52.70
2017-08-04T17:23:21.766Z,52.70
2017-08-04T17:25:49.305Z,53.10
2017-08-04T17:28:16.823Z,52.30
2017-08-04T17:30:44.358Z,52.80
2017-08-04T17:33:11.879Z,52.60
2017-08-04T17:35:39.423Z,52.90
2017-08-04T17:38:06.943Z,53.20
2017-08-04T17:40:34.482Z,53.60
2017-08-04T17:43:02.008Z,53.70
2017-08-04T17:45:29.531Z,53.80
2017-08-04T17:47:57.836Z,53.40
2017-08-04T17:50:25.362Z,52.80
2017-08-04T17:52:52.899Z,53.60
2017-08-04T17:55:20.416Z,53.50
2017-08-04T17:57:47.969Z,53.70
2017-08-04T18:00:16.254Z,53.90
2017-08-04T18:02:56.426Z,54.50
2017-08-04T18:05:23.947Z,54.50
2017-08-04T18:07:51.483Z,54.80
2017-08-04T18:10:19.001Z,55.20
2017-08-04T18:12:46.544Z,55.40
2017-08-04T18:15:14.122Z,55.40
2017-08-04T18:17:41.664Z,55.70
2017-08-04T18:20:09.183Z,56.50
2017-08-04T18:22:36.729Z,56.10
2017-08-04T18:25:05.028Z,56.90
2017-08-04T18:27:32.547Z,56.80
2017-08-04T18:30:00.081Z,57.40
2017-08-04T18:32:27.599Z,57.70
2017-08-04T18:34:55.135Z,58.10
2017-08-04T18:37:23.422Z,58.10
2017-08-04T18:39:50.963Z,58.10
2017-08-04T18:42:18.521Z,58.60
2017-08-04T18:44:46.054Z,59.20
2017-08-04T18:47:13.574Z,59.80
2017-08-04T18:49:41.110Z,59.90
2017-08-04T18:52:09.390Z,61.80
2017-08-04T18:54:36.943Z,60.80
2017-08-04T18:57:04.462Z,61.60
2017-08-04T18:59:31.973Z,61.70
2017-08-04T19:01:59.512Z,62.30
2017-08-04T19:04:27.039Z,63.10
2017-08-04T19:06:55.344Z,64.60
2017-08-04T19:09:22.859Z,64.60
2017-08-04T19:11:50.399Z,65.20
2017-08-04T19:14:17.961Z,66.00
2017-08-04T19:16:45.491Z,66.80
2017-08-04T19:19:13.007Z,67.50
2017-08-04T19:21:40.551Z,68.30
2017-08-04T19:24:08.114Z,69.40
2017-08-04T19:26:35.715Z,70.10
2017-08-04T19:29:03.246Z,70.70
2017-08-04T19:31:30.779Z,71.30
2017-08-04T19:33:58.295Z,72.20
2017-08-04T19:36:26.606Z,73.80
2017-08-04T19:38:54.126Z,73.10
2017-08-04T19:41:21.642Z,73.30
2017-08-04T19:43:49.991Z,74.60
2017-08-04T19:46:17.510Z,73.70
2017-08-04T19:48:45.810Z,75.30
2017-08-04T19:51:13.332Z,75.10
2017-08-04T19:53:40.871Z,75.40
2017-08-04T19:56:08.434Z,75.80
2017-08-04T19:58:35.969Z,76.40
2017-08-04T20:01:03.486Z,77.10
2017-08-04T20:03:31.030Z,78.10
2017-08-04T20:05:58.548Z,79.00
2017-08-04T20:08:26.099Z,79.00
2017-08-04T20:10:53.619Z,79.60
2017-08-04T20:13:21.139Z,79.90
2017-08-04T20:15:48.677Z,80.10
2017-08-04T20:18:16.194Z,80.80
2017-08-04T20:20:43.722Z,80.70
2017-08-04T20:23:11.237Z,80.60
2017-08-04T20:25:38.777Z,80.30
2017-08-04T20:28:06.302Z,80.00
2017-08-04T20:30:33.838Z,80.30
2017-08-04T20:33:02.128Z,79.60
2017-08-04T20:35:30.439Z,79.50
2017-08-04T20:37:58.722Z,79.30
2017-08-04T20:40:27.025Z,79.20
2017-08-04T20:42:54.555Z,79.10
2017-08-04T20:45:22.932Z,79.10
2017-08-04T20:47:50.450Z,79.00
2017-08-04T20:50:18.730Z,77.90
2017-08-04T20:52:47.034Z,79.40
2017-08-04T20:55:14.549Z,79.30
2017-08-04T20:57:42.090Z,80.40
2017-08-04T21:00:09.616Z,82.00
2017-08-04T21:02:37.196Z,82.70
2017-08-04T21:05:04.717Z,82.10
2017-08-04T21:07:32.263Z,81.80
2017-08-04T21:09:59.779Z,82.10
2017-08-04T21:12:28.089Z,84.30
2017-08-04T21:14:55.607Z,83.40
2017-08-04T21:17:23.142Z,83.80
2017-08-04T21:19:50.666Z,84.10
2017-08-04T21:22:18.969Z,83.00
2017-08-04T21:24:46.487Z,82.90
2017-08-04T21:27:13.999Z,84.20
2017-08-04T21:29:41.539Z,85.80
2017-08-04T21:32:09.051Z,85.60
2017-08-04T21:34:36.587Z,86.20
2017-08-04T21:37:04.119Z,86.60
2017-08-04T21:39:31.649Z,85.00
2017-08-04T21:41:59.166Z,83.90
2017-08-04T21:44:26.702Z,85.00
2017-08-04T21:46:54.218Z,86.70
2017-08-04T21:49:21.752Z,87.10
2017-08-04T21:51:50.038Z,88.40
2017-08-04T21:54:18.318Z,89.20
2017-08-04T21:56:45.868Z,89.20
2017-08-04T21:59:13.386Z,89.30
2017-08-04T22:01:40.923Z,88.80
2017-08-04T22:04:09.209Z,86.50
2017-08-04T22:06:36.744Z,86.40
2017-08-04T22:09:04.254Z,86.20
2017-08-04T22:11:31.799Z,87.20
2017-08-04T22:13:59.323Z,89.20
2017-08-04T22:16:26.847Z,90.10
2017-08-04T22:18:54.412Z,90.20
2017-08-04T22:21:21.934Z,90.60
2017-08-04T22:23:50.233Z,90.60
2017-08-04T22:26:17.756Z,90.50
2017-08-04T22:28:45.293Z,90.40
2017-08-04T22:31:12.814Z,90.20
2017-08-04T22:33:40.350Z,88.30
2017-08-04T22:36:08.634Z,89.30
2017-08-04T22:38:36.943Z,90.00
2017-08-04T22:41:04.460Z,90.00
2017-08-04T22:43:32.022Z,90.10
2017-08-04T22:45:59.558Z,90.40
2017-08-04T22:48:27.082Z,90.30
2017-08-04T22:50:54.619Z,90.30
2017-08-04T22:53:22.131Z,90.50
2017-08-04T22:55:49.670Z,90.60
2017-08-04T22:58:17.190Z,90.50
2017-08-04T23:00:44.726Z,90.40
2017-08-04T23:03:12.242Z,90.60
2017-08-04T23:05:40.547Z,90.50
2017-08-04T23:08:08.067Z,90.50
2017-08-04T23:10:35.581Z,90.90
2017-08-04T23:13:03.118Z,91.20
2017-08-04T23:15:30.639Z,91.20
2017-08-04T23:17:58.946Z,91.20
2017-08-04T23:20:26.465Z,91.20
2017-08-04T23:22:54.767Z,91.30
2017-08-04T23:25:22.282Z,91.20
2017-08-04T23:27:49.819Z,91.50
2017-08-04T23:30:17.343Z,91.20
2017-08-04T23:32:44.879Z,91.00
2017-08-04T23:35:13.167Z,91.20
2017-08-04T23:37:40.702Z,91.20
2017-08-04T23:40:08.225Z,90.80
2017-08-04T23:42:35.763Z,90.70
2017-08-04T23:45:03.278Z,91.50
2017-08-04T23:47:30.795Z,91.70
2017-08-04T23:49:59.104Z,90.60
2017-08-04T23:52:26.617Z,90.50
2017-08-04T23:54:54.919Z,90.40
2017-08-04T23:57:22.439Z,90.40
2017-08-04T23:59:49.975Z,91.00
